This is the latest recevied weather packets stored in our database for station/object KB1ZFK. If no packets are shown the sender has not sent any weather packets the latest 10 day(s).
| Time | Temp. | Humidity | Pressure | Rain* | Wind** | Luminosity | Snow |
|---|---|---|---|---|---|---|---|
| 1777469482 | 10° C | 73% | 1017.3 hPa | 0 mm | - | 212 W/m² | - |
| 1777469176 | 11.11° C | 70% | 1017.5 hPa | 0 mm | - | 170 W/m² | - |
| 1777468871 | 11.11° C | 69% | 1017.5 hPa | 0 mm | - | 535 W/m² | - |
| 1777468568 | 11.11° C | 69% | 1017.6 hPa | 0 mm | - | 430 W/m² | - |
| 1777468265 | 11.11° C | 69% | 1017.5 hPa | 0 mm | - | 483 W/m² | - |
| 1777467961 | 10.56° C | 69% | 1017.7 hPa | 0 mm | - | 418 W/m² | - |
| 1777467657 | 9.44° C | 75% | 1017.4 hPa | 0 mm | - | 422 W/m² | - |
| 1777467353 | 10.56° C | 72% | 1017.5 hPa | 0 mm | - | 388 W/m² | - |
| 1777467049 | 10.56° C | 72% | 1017.6 hPa | 0 mm | - | 372 W/m² | - |
| 1777466746 | 8.89° C | 75% | 1017.6 hPa | 0 mm | - | 416 W/m² | - |
| 1777466444 | 8.33° C | 78% | 1017.8 hPa | 0 mm | - | 138 W/m² | - |
| 1777466139 | 8.33° C | 77% | 1017.8 hPa | 0 mm | - | 130 W/m² | - |
| 1777465836 | 9.44° C | 75% | 1017.8 hPa | 0 mm | - | 113 W/m² | - |
| 1777465532 | 8.33° C | 77% | 1017.7 hPa | 0 mm | - | 326 W/m² | - |
| 1777465227 | 7.78° C | 79% | 1017.9 hPa | 0 mm | - | 167 W/m² | - |
| 1777464922 | 8.33° C | 79% | 1018.3 hPa | 0 mm | - | 127 W/m² | - |
| 1777464617 | 8.33° C | 78% | 1018.4 hPa | 0 mm | - | 117 W/m² | - |
| 1777464313 | 7.78° C | 79% | 1018.3 hPa | 0 mm | - | 123 W/m² | - |
| 1777464009 | 7.78° C | 81% | 1018.2 hPa | 0 mm | - | 112 W/m² | - |
| 1777463704 | 7.78° C | 81% | 1018.2 hPa | 0 mm | - | 104 W/m² | - |
| 1777463399 | 7.78° C | 80% | 1018.2 hPa | 0 mm | - | 95 W/m² | - |
| 1777463095 | 7.78° C | 78% | 1018.3 hPa | 0 mm | - | 83 W/m² | - |
| 1777462791 | 7.78° C | 77% | 1018.2 hPa | 0 mm | - | 79 W/m² | - |
| 1777462486 | 7.78° C | 77% | 1018.1 hPa | 0 mm | - | 76 W/m² | - |
| 1777462183 | 7.78° C | 78% | 1018.1 hPa | 0 mm | - | 71 W/m² | - |
* Rain latest hour (hover to see other rain measurements)
** Current wind speed in m/s (hover to see current wind gust speed)